KDNS/DNS METAR and TAF weather

Enter ICAO airport designator
Station Type Date Time Source
KDNS METAR 2019/02/20 07:55 UTC NOAA

KDNS 200755Z AUTO 11014G20KT 2 1/2SM -SN BKN025 BKN031 OVC037 M06/M07 A2986 RMK AO2


Station Type Date Time Source
KDNS Decoded METAR 2019/02/20 07:55 UTC NOAA

Denison, IA, United States (KDNS) 41-59N 095-23W
Feb 20, 2019 - 02:55 AM EST / 2019.02.20 0755 UTC
Wind: from the ESE (110 degrees) at 16 MPH (14 KT) gusting to 23 MPH (20 KT):0
Visibility: 2 1/2 mile(s):0
Sky conditions: overcast
Weather: light snow
Temperature: 21 F (-6 C)
Windchill: 6 F (-14 C):1
Dew Point: 19 F (-7 C)
Relative Humidity: 92%
Pressure (altimeter): 29.86 in. Hg (1011 hPa)
ob: KDNS 200755Z AUTO 11014G20KT 2 1/2SM -SN BKN025 BKN031 OVC037 M06/M07 A2986 RMK AO2
cycle: 8

Station Type Date Time Source
KDNS TAF UTC NOAA

Error!


Example: see airport list